createdAt,value
2022-10-12T00:02:06.368Z,9.12
2022-10-12T00:04:38.649Z,9.12
2022-10-12T00:07:10.925Z,9.13
2022-10-12T00:09:43.270Z,9.13
2022-10-12T00:12:15.486Z,9.11
2022-10-12T00:14:47.793Z,9.09
2022-10-12T00:17:20.084Z,9.05
2022-10-12T00:19:52.793Z,9.03
2022-10-12T00:22:25.038Z,8.97
2022-10-12T00:24:57.400Z,8.93
2022-10-12T00:27:29.691Z,8.92
2022-10-12T00:30:02.055Z,8.93
2022-10-12T00:32:34.737Z,8.93
2022-10-12T00:35:07.932Z,8.92
2022-10-12T00:37:40.385Z,8.93
2022-10-12T00:40:14.763Z,8.93
2022-10-12T00:42:49.253Z,8.92
2022-10-12T00:45:24.837Z,8.90
2022-10-12T00:48:00.491Z,8.82
2022-10-12T00:50:35.520Z,8.80
2022-10-12T00:53:11.040Z,8.81
2022-10-12T00:55:50.820Z,8.82
2022-10-12T00:58:23.620Z,8.82
2022-10-12T01:00:56.049Z,8.83
2022-10-12T01:03:28.468Z,8.82
2022-10-12T01:06:01.632Z,8.79
2022-10-12T01:08:34.401Z,8.74
2022-10-12T01:11:06.872Z,8.70
2022-10-12T01:13:39.268Z,8.66
2022-10-12T01:16:20.943Z,8.61
2022-10-12T01:19:04.038Z,8.58
2022-10-12T01:21:42.165Z,8.57
2022-10-12T01:24:40.842Z,8.56
2022-10-12T01:27:28.946Z,8.56
2022-10-12T01:30:22.039Z,8.56
2022-10-12T01:33:09.984Z,8.54
2022-10-12T01:35:50.487Z,8.53
2022-10-12T01:38:35.967Z,8.50
2022-10-12T01:41:09.759Z,8.49
2022-10-12T01:43:43.967Z,8.49
2022-10-12T01:46:42.541Z,8.48
2022-10-12T01:49:17.189Z,8.45
2022-10-12T01:52:08.880Z,8.43
2022-10-12T01:54:54.918Z,8.42
2022-10-12T01:57:36.223Z,8.43
2022-10-12T02:00:11.751Z,8.45
2022-10-12T02:02:55.337Z,8.44
2022-10-12T02:05:35.597Z,8.43
2022-10-12T02:08:14.404Z,8.42
2022-10-12T02:10:54.864Z,8.40
2022-10-12T02:13:31.501Z,8.37
2022-10-12T02:16:08.460Z,8.34
2022-10-12T02:18:44.260Z,8.33
2022-10-12T02:21:21.912Z,8.33
2022-10-12T02:23:57.791Z,8.33
2022-10-12T02:26:31.504Z,8.31
2022-10-12T02:29:07.725Z,8.31
2022-10-12T02:31:47.167Z,8.33
2022-10-12T02:34:23.799Z,8.34
2022-10-12T02:37:06.432Z,8.33
2022-10-12T02:39:46.550Z,8.33
2022-10-12T02:42:23.134Z,8.31
2022-10-12T02:44:56.986Z,8.31
2022-10-12T02:47:33.959Z,8.31
2022-10-12T02:50:09.373Z,8.32
2022-10-12T02:52:42.080Z,8.33
2022-10-12T02:55:15.075Z,8.33
2022-10-12T02:57:47.548Z,8.30
2022-10-12T03:00:21.211Z,8.29
2022-10-12T03:02:53.544Z,8.27
2022-10-12T03:05:25.858Z,8.25
2022-10-12T03:07:58.177Z,8.24
2022-10-12T03:10:30.507Z,8.23
2022-10-12T03:13:02.816Z,8.23
2022-10-12T03:15:35.092Z,8.21
2022-10-12T03:18:07.550Z,8.20
2022-10-12T03:20:39.872Z,8.21
2022-10-12T03:23:12.261Z,8.23
2022-10-12T03:25:44.625Z,8.24
2022-10-12T03:28:16.990Z,8.23
2022-10-12T03:30:49.429Z,8.22
2022-10-12T03:33:21.687Z,8.22
2022-10-12T03:35:54.124Z,8.20
2022-10-12T03:38:26.397Z,8.19
2022-10-12T03:41:01.784Z,8.20
2022-10-12T03:43:38.533Z,8.18
2022-10-12T03:46:10.777Z,8.16
2022-10-12T03:48:43.424Z,8.17
2022-10-12T03:51:15.785Z,8.17
2022-10-12T03:53:48.084Z,8.17
2022-10-12T03:56:20.324Z,8.18
2022-10-12T03:58:52.601Z,8.17
2022-10-12T04:01:25.859Z,8.16
2022-10-12T04:03:58.370Z,8.13
2022-10-12T04:06:30.556Z,8.08
2022-10-12T04:09:02.825Z,8.09
2022-10-12T04:11:35.185Z,8.08
2022-10-12T04:14:07.377Z,8.06
2022-10-12T04:16:39.639Z,8.04
2022-10-12T04:19:14.204Z,8.03
2022-10-12T04:21:46.493Z,8.02
2022-10-12T04:24:18.781Z,8.00
2022-10-12T04:26:51.060Z,7.99
2022-10-12T04:29:23.422Z,7.98
2022-10-12T04:31:55.581Z,7.97
2022-10-12T04:34:27.905Z,7.96
2022-10-12T04:37:00.109Z,7.95
2022-10-12T04:39:32.648Z,7.93
2022-10-12T04:42:06.995Z,7.90
2022-10-12T04:44:39.220Z,7.88
2022-10-12T04:47:11.445Z,7.87
2022-10-12T04:49:43.923Z,7.87
2022-10-12T04:52:16.157Z,7.85
2022-10-12T04:54:48.571Z,7.84
2022-10-12T04:57:20.993Z,7.83
2022-10-12T04:59:53.293Z,7.82
2022-10-12T05:02:25.496Z,7.81
2022-10-12T05:04:58.240Z,7.81
2022-10-12T05:07:30.415Z,7.81
2022-10-12T05:10:02.713Z,7.83
2022-10-12T05:12:35.067Z,7.86
2022-10-12T05:15:09.080Z,7.73
2022-10-12T05:17:41.448Z,7.56
2022-10-12T05:20:15.150Z,7.55
2022-10-12T05:22:47.384Z,7.56
2022-10-12T05:25:20.684Z,7.57
2022-10-12T05:27:52.878Z,7.60
2022-10-12T05:30:25.472Z,7.64
2022-10-12T05:32:57.764Z,7.64
2022-10-12T05:35:30.084Z,7.65
2022-10-12T05:38:02.504Z,7.68
2022-10-12T05:40:34.827Z,7.73
2022-10-12T05:43:07.165Z,7.80
2022-10-12T05:45:39.656Z,7.87
2022-10-12T05:48:11.916Z,7.93
2022-10-12T05:50:44.128Z,8.00
2022-10-12T05:53:16.372Z,8.08
2022-10-12T05:55:56.880Z,8.15
2022-10-12T05:58:30.813Z,8.24
2022-10-12T06:01:10.464Z,8.33
2022-10-12T06:03:42.972Z,8.43
2022-10-12T06:06:15.192Z,8.48
2022-10-12T06:08:47.489Z,8.52
2022-10-12T06:11:19.873Z,8.56
2022-10-12T06:13:52.109Z,8.60
2022-10-12T06:16:24.381Z,8.64
2022-10-12T06:18:56.643Z,8.69
2022-10-12T06:21:33.481Z,8.75
2022-10-12T06:24:07.506Z,8.82
2022-10-12T06:26:39.801Z,8.91
2022-10-12T06:29:12.491Z,9.01
2022-10-12T06:31:48.930Z,9.13
2022-10-12T06:34:22.899Z,9.23
2022-10-12T06:36:59.473Z,9.33
2022-10-12T06:39:33.872Z,9.42
2022-10-12T06:42:07.781Z,9.50
2022-10-12T06:44:41.006Z,9.71
2022-10-12T06:47:13.353Z,9.91
2022-10-12T06:49:45.570Z,9.96
2022-10-12T06:52:17.833Z,10.03
2022-10-12T06:54:50.044Z,10.08
2022-10-12T06:57:22.320Z,10.16
2022-10-12T06:59:54.535Z,10.26
2022-10-12T07:02:26.822Z,10.38
2022-10-12T07:04:59.058Z,10.49
2022-10-12T07:07:32.873Z,10.58
2022-10-12T07:10:07.599Z,10.68
2022-10-12T07:12:40.534Z,10.77
2022-10-12T07:15:14.145Z,10.89
2022-10-12T07:17:46.410Z,11.01
2022-10-12T07:20:18.784Z,11.11
2022-10-12T07:22:51.071Z,11.24
2022-10-12T07:25:23.365Z,11.40
2022-10-12T07:27:55.683Z,11.56
2022-10-12T07:30:27.975Z,11.73
2022-10-12T07:33:00.197Z,11.89
2022-10-12T07:35:32.509Z,12.02
2022-10-12T07:38:05.380Z,12.07
2022-10-12T07:40:38.227Z,12.10
2022-10-12T07:43:16.109Z,12.23
2022-10-12T07:45:48.977Z,12.41
2022-10-12T07:48:21.260Z,12.57
2022-10-12T07:50:53.541Z,12.73
2022-10-12T07:53:25.813Z,12.89
2022-10-12T07:56:04.278Z,13.03
2022-10-12T07:58:36.660Z,13.13
2022-10-12T08:01:11.345Z,13.21
2022-10-12T08:03:43.734Z,13.31
2022-10-12T08:06:18.314Z,13.41
2022-10-12T08:08:50.907Z,13.51
2022-10-12T08:11:23.399Z,13.61
2022-10-12T08:13:56.381Z,13.73
2022-10-12T08:16:28.573Z,13.87
2022-10-12T08:19:02.727Z,14.02
2022-10-12T08:21:34.989Z,14.19
2022-10-12T08:24:09.513Z,14.30
2022-10-12T08:26:42.041Z,14.42
2022-10-12T08:29:14.227Z,14.53
2022-10-12T08:31:46.514Z,14.67
2022-10-12T08:34:18.868Z,14.80
2022-10-12T08:36:51.981Z,14.96
2022-10-12T08:39:24.367Z,15.12
2022-10-12T08:42:08.134Z,15.24
2022-10-12T08:45:07.915Z,15.38
2022-10-12T08:47:44.033Z,15.51
2022-10-12T08:50:31.101Z,15.64
2022-10-12T08:53:12.905Z,15.78
2022-10-12T08:55:47.315Z,15.91
2022-10-12T08:58:21.934Z,16.02
2022-10-12T09:00:58.624Z,16.08
2022-10-12T09:03:44.288Z,16.16
2022-10-12T09:06:19.965Z,16.26
2022-10-12T09:09:06.377Z,16.32
2022-10-12T09:11:53.186Z,16.44
2022-10-12T09:14:28.703Z,16.54
2022-10-12T09:17:04.001Z,16.61
2022-10-12T09:19:42.009Z,16.58
2022-10-12T09:22:19.683Z,16.55
2022-10-12T09:24:53.087Z,16.51
2022-10-12T09:27:25.448Z,16.48
2022-10-12T09:30:03.342Z,16.46
2022-10-12T09:33:00.776Z,16.46
2022-10-12T09:35:33.670Z,16.54
2022-10-12T09:38:07.392Z,16.52
2022-10-12T09:40:40.396Z,16.52
2022-10-12T09:43:12.931Z,16.55
2022-10-12T09:45:45.259Z,16.59
2022-10-12T09:48:20.858Z,16.63
2022-10-12T09:50:55.801Z,16.72
2022-10-12T09:53:36.154Z,16.91
2022-10-12T09:56:16.081Z,17.11
2022-10-12T09:58:55.341Z,17.25
2022-10-12T10:01:29.911Z,17.42
2022-10-12T10:04:15.285Z,17.63
2022-10-12T10:06:48.494Z,17.84
2022-10-12T10:09:32.316Z,17.95
2022-10-12T10:12:22.976Z,18.01
2022-10-12T10:14:57.919Z,17.93
2022-10-12T10:17:33.787Z,17.84
2022-10-12T10:20:23.795Z,17.72
2022-10-12T10:22:56.368Z,17.64
2022-10-12T10:25:29.515Z,17.52
2022-10-12T10:28:30.023Z,17.41
2022-10-12T10:31:04.961Z,17.37
2022-10-12T10:33:36.397Z,17.34
2022-10-12T10:36:14.955Z,17.31
2022-10-12T10:38:59.218Z,17.28
2022-10-12T10:41:39.624Z,17.29
2022-10-12T10:44:25.651Z,17.25
2022-10-12T10:47:02.401Z,17.31
2022-10-12T10:49:42.386Z,17.44
2022-10-12T10:52:25.076Z,17.62
2022-10-12T10:55:20.340Z,17.80
2022-10-12T10:58:02.306Z,17.96
2022-10-12T11:00:39.698Z,17.96
2022-10-12T11:06:08.429Z,18.21
2022-10-12T11:08:42.858Z,18.36
2022-10-12T11:11:19.951Z,18.51
2022-10-12T11:13:59.348Z,18.60
2022-10-12T11:16:35.537Z,18.61
2022-10-12T11:19:21.200Z,18.56
2022-10-12T11:21:57.186Z,18.54
2022-10-12T11:24:34.746Z,18.46
2022-10-12T11:27:13.724Z,18.36
2022-10-12T11:29:54.119Z,18.30
2022-10-12T11:32:40.012Z,18.20
2022-10-12T11:35:18.729Z,18.16
2022-10-12T11:37:55.207Z,18.06
2022-10-12T11:40:55.620Z,17.95
2022-10-12T11:43:23.888Z,17.89
2022-10-12T11:46:03.021Z,17.85
2022-10-12T11:48:40.895Z,17.79
2022-10-12T11:51:14.177Z,17.71
2022-10-12T11:53:56.231Z,17.65
2022-10-12T11:56:32.719Z,17.69
2022-10-12T11:59:11.853Z,17.73
2022-10-12T12:01:53.993Z,17.76
2022-10-12T12:04:48.275Z,17.88
2022-10-12T12:07:46.476Z,18.03
2022-10-12T12:11:03.747Z,17.99
2022-10-12T12:13:35.991Z,17.79
2022-10-12T12:16:31.874Z,17.66
2022-10-12T12:19:40.175Z,17.55
2022-10-12T12:22:28.839Z,17.43
2022-10-12T12:25:20.246Z,17.28
2022-10-12T12:27:56.058Z,17.09
2022-10-12T12:30:34.396Z,16.95
2022-10-12T12:33:26.462Z,16.84
2022-10-12T12:36:01.797Z,16.76
2022-10-12T12:38:36.888Z,16.70
2022-10-12T12:41:12.872Z,16.66
2022-10-12T12:44:06.168Z,16.60
2022-10-12T12:50:37.579Z,16.35
2022-10-12T12:53:18.355Z,16.26
2022-10-12T12:56:17.483Z,16.21
2022-10-12T12:59:03.552Z,16.14
2022-10-12T13:01:57.293Z,16.10
2022-10-12T13:05:01.547Z,16.09
2022-10-12T13:07:52.055Z,16.07
2022-10-12T13:10:39.645Z,16.06
2022-10-12T13:14:27.169Z,16.07
2022-10-12T13:20:16.997Z,16.07
2022-10-12T13:22:51.556Z,16.05
2022-10-12T13:25:33.849Z,16.04
2022-10-12T13:28:13.811Z,16.02
2022-10-12T13:30:52.553Z,16.00
2022-10-12T13:33:32.610Z,15.97
2022-10-12T13:36:09.787Z,15.95
2022-10-12T13:38:42.201Z,15.94
2022-10-12T13:41:17.390Z,15.92
2022-10-12T13:43:55.584Z,15.89
2022-10-12T13:46:45.623Z,15.89
2022-10-12T13:49:21.490Z,15.89
2022-10-12T13:51:55.884Z,15.91
2022-10-12T13:54:36.017Z,15.90
2022-10-12T13:57:20.149Z,15.92
2022-10-12T13:59:57.811Z,15.94
2022-10-12T14:02:33.916Z,15.97
2022-10-12T14:05:16.933Z,15.95
2022-10-12T14:07:50.841Z,15.93
2022-10-12T14:10:25.755Z,15.91
2022-10-12T14:12:57.740Z,15.89
2022-10-12T14:15:36.081Z,15.85
2022-10-12T14:18:38.500Z,15.78
2022-10-12T14:21:17.517Z,15.74
2022-10-12T14:23:51.979Z,15.71
2022-10-12T14:26:30.562Z,15.66
2022-10-12T14:29:23.063Z,15.61
2022-10-12T14:31:57.090Z,15.54
2022-10-12T14:34:37.753Z,15.47
2022-10-12T14:37:26.514Z,15.42
2022-10-12T14:40:03.327Z,15.35
2022-10-12T14:42:37.059Z,15.32
2022-10-12T14:45:25.777Z,15.28
2022-10-12T14:47:59.752Z,15.26
2022-10-12T14:50:34.054Z,15.25
2022-10-12T14:53:11.608Z,15.23
2022-10-12T14:55:44.464Z,15.22
2022-10-12T14:58:19.668Z,15.21
2022-10-12T15:00:51.958Z,15.20
2022-10-12T15:03:24.160Z,15.20
2022-10-12T15:05:56.359Z,15.20
2022-10-12T15:08:28.625Z,15.19
2022-10-12T15:11:00.779Z,15.19
2022-10-12T15:13:32.928Z,15.16
2022-10-12T15:16:11.359Z,15.15
2022-10-12T15:18:43.449Z,15.12
2022-10-12T15:21:16.277Z,15.09
2022-10-12T15:23:48.737Z,15.07
2022-10-12T15:26:21.029Z,15.05
2022-10-12T15:28:53.171Z,15.03
2022-10-12T15:31:25.365Z,15.01
2022-10-12T15:33:57.592Z,14.97
2022-10-12T15:36:29.728Z,14.94
2022-10-12T15:39:01.847Z,14.90
2022-10-12T15:41:34.328Z,14.89
2022-10-12T15:44:07.320Z,14.86
2022-10-12T15:46:39.489Z,14.82
2022-10-12T15:49:15.121Z,14.77
2022-10-12T15:51:51.746Z,14.75
2022-10-12T15:54:23.931Z,14.71
2022-10-12T15:56:56.087Z,14.66
2022-10-12T15:59:28.437Z,14.62
2022-10-12T16:02:00.931Z,14.57
2022-10-12T16:04:33.092Z,14.52
2022-10-12T16:07:05.219Z,14.46
2022-10-12T16:09:37.396Z,14.42
2022-10-12T16:12:09.778Z,14.36
2022-10-12T16:14:41.994Z,14.31
2022-10-12T16:17:14.538Z,14.26
2022-10-12T16:19:46.945Z,14.19
2022-10-12T16:22:19.181Z,14.12
2022-10-12T16:24:51.372Z,14.05
2022-10-12T16:27:23.468Z,13.98
2022-10-12T16:29:56.446Z,13.92
2022-10-12T16:32:28.685Z,13.85
2022-10-12T16:35:00.829Z,13.78
2022-10-12T16:37:33.155Z,13.71
2022-10-12T16:40:07.262Z,13.63
2022-10-12T16:42:39.387Z,13.57
2022-10-12T16:45:12.553Z,13.50
2022-10-12T16:47:44.695Z,13.43
2022-10-12T16:50:17.012Z,13.36
2022-10-12T16:52:49.403Z,13.30
2022-10-12T16:55:22.187Z,13.22
2022-10-12T16:57:54.340Z,13.16
2022-10-12T17:00:26.786Z,13.10
2022-10-12T17:02:58.906Z,13.03
2022-10-12T17:05:31.177Z,12.98
2022-10-12T17:08:03.429Z,12.94
2022-10-12T17:10:35.588Z,12.88
2022-10-12T17:13:07.989Z,12.83
2022-10-12T17:15:43.796Z,12.79
2022-10-12T17:18:16.214Z,12.74
2022-10-12T17:20:50.743Z,12.68
2022-10-12T17:23:25.110Z,12.62
2022-10-12T17:26:02.500Z,12.49
2022-10-12T17:28:37.581Z,12.42
2022-10-12T17:31:11.902Z,12.39
2022-10-12T17:33:44.285Z,12.36
2022-10-12T17:36:16.846Z,12.33
2022-10-12T17:38:53.319Z,12.31
2022-10-12T17:41:26.298Z,12.24
2022-10-12T17:43:59.003Z,12.19
2022-10-12T17:46:31.164Z,12.18
2022-10-12T17:49:03.875Z,12.16
2022-10-12T17:51:36.121Z,12.12
2022-10-12T17:54:08.435Z,12.09
2022-10-12T17:56:40.605Z,12.07
2022-10-12T17:59:14.941Z,12.04
2022-10-12T18:01:47.484Z,12.01
2022-10-12T18:04:20.139Z,11.96
2022-10-12T18:06:52.412Z,11.91
2022-10-12T18:09:24.797Z,11.87
2022-10-12T18:11:56.963Z,11.82
2022-10-12T18:14:29.239Z,11.78
2022-10-12T18:17:01.561Z,11.74
2022-10-12T18:19:33.807Z,11.70
2022-10-12T18:22:06.008Z,11.66
2022-10-12T18:24:38.239Z,11.62
2022-10-12T18:27:10.429Z,11.57
2022-10-12T18:29:42.719Z,11.53
2022-10-12T18:32:14.983Z,11.50
2022-10-12T18:34:47.545Z,11.47
2022-10-12T18:37:19.797Z,11.45
2022-10-12T18:39:52.286Z,11.43
2022-10-12T18:42:24.455Z,11.38
2022-10-12T18:44:56.937Z,11.34
2022-10-12T18:47:29.186Z,11.30
2022-10-12T18:50:01.548Z,11.25
2022-10-12T18:52:34.134Z,11.21
2022-10-12T18:55:07.184Z,11.18
2022-10-12T18:57:40.253Z,11.15
2022-10-12T19:00:15.398Z,11.12
2022-10-12T19:02:45.951Z,11.09
2022-10-12T19:05:18.362Z,11.06
2022-10-12T19:07:50.637Z,11.03
2022-10-12T19:10:23.072Z,11.01
2022-10-12T19:12:55.248Z,11.00
2022-10-12T19:15:28.653Z,10.98
2022-10-12T19:18:00.840Z,10.94
2022-10-12T19:20:33.611Z,10.93
2022-10-12T19:23:05.860Z,10.90
2022-10-12T19:25:41.108Z,10.88
2022-10-12T19:28:13.343Z,10.86
2022-10-12T19:30:45.601Z,10.83
2022-10-12T19:33:17.755Z,10.79
2022-10-12T19:35:50.197Z,10.76
2022-10-12T19:38:22.842Z,10.74
2022-10-12T19:40:55.045Z,10.71
2022-10-12T19:43:27.860Z,10.69
2022-10-12T19:46:04.947Z,10.66
2022-10-12T19:48:37.348Z,10.63
2022-10-12T19:51:12.169Z,10.61
2022-10-12T19:53:44.607Z,10.58
2022-10-12T19:56:20.961Z,10.57
2022-10-12T19:58:55.451Z,10.54
2022-10-12T20:01:29.760Z,10.52
2022-10-12T20:04:02.694Z,10.49
2022-10-12T20:06:35.251Z,10.46
2022-10-12T20:09:09.061Z,10.45
2022-10-12T20:11:42.279Z,10.43
2022-10-12T20:14:14.548Z,10.40
2022-10-12T20:16:46.921Z,10.38
2022-10-12T20:19:19.309Z,10.37
2022-10-12T20:21:51.804Z,10.35
2022-10-12T20:24:25.075Z,10.32
2022-10-12T20:26:57.646Z,10.28
2022-10-12T20:29:29.931Z,10.26
2022-10-12T20:32:02.340Z,10.23
2022-10-12T20:34:35.062Z,10.20
2022-10-12T20:37:07.368Z,10.19
2022-10-12T20:39:39.612Z,10.17
2022-10-12T20:42:12.081Z,10.16
2022-10-12T20:44:44.616Z,10.14
2022-10-12T20:47:17.766Z,10.13
2022-10-12T20:49:50.321Z,10.10
2022-10-12T20:52:22.646Z,10.08
2022-10-12T20:54:55.282Z,10.06
2022-10-12T20:57:27.561Z,10.04
2022-10-12T20:59:59.737Z,10.02
2022-10-12T21:02:33.519Z,10.00
2022-10-12T21:05:06.036Z,9.98
2022-10-12T21:07:38.521Z,9.97
2022-10-12T21:10:12.240Z,9.96
2022-10-12T21:12:44.363Z,9.94
2022-10-12T21:15:16.930Z,9.93
2022-10-12T21:17:49.228Z,9.91
2022-10-12T21:20:21.590Z,9.90
2022-10-12T21:22:53.870Z,9.90
2022-10-12T21:25:26.445Z,9.89
2022-10-12T21:27:58.724Z,9.87
2022-10-12T21:30:30.927Z,9.84
2022-10-12T21:33:02.984Z,9.80
2022-10-12T21:35:35.545Z,9.78
2022-10-12T21:38:08.145Z,9.76
2022-10-12T21:40:40.378Z,9.75
2022-10-12T21:43:12.698Z,9.74
2022-10-12T21:45:44.843Z,9.71
2022-10-12T21:48:16.983Z,9.68
2022-10-12T21:50:49.164Z,9.67
2022-10-12T21:53:21.373Z,9.65
2022-10-12T21:55:53.904Z,9.63
2022-10-12T21:58:26.078Z,9.60
2022-10-12T22:01:08.638Z,9.58
2022-10-12T22:03:40.979Z,9.57
2022-10-12T22:06:18.033Z,9.54
2022-10-12T22:08:55.120Z,9.53
2022-10-12T22:11:29.674Z,9.51
2022-10-12T22:14:03.988Z,9.49
2022-10-12T22:16:37.898Z,9.47
2022-10-12T22:19:14.451Z,9.44
2022-10-12T22:21:47.208Z,9.42
2022-10-12T22:24:19.513Z,9.41
2022-10-12T22:26:51.928Z,9.40
2022-10-12T22:29:24.111Z,9.39
2022-10-12T22:31:56.282Z,9.37
2022-10-12T22:34:28.681Z,9.34
2022-10-12T22:37:00.948Z,9.30
2022-10-12T22:39:33.191Z,9.29
2022-10-12T22:42:05.371Z,9.27
2022-10-12T22:44:37.482Z,9.26
2022-10-12T22:47:09.943Z,9.24
2022-10-12T22:49:42.148Z,9.22
2022-10-12T22:52:14.490Z,9.20
2022-10-12T22:54:50.039Z,9.19
2022-10-12T22:57:22.196Z,9.18
2022-10-12T22:59:54.457Z,9.16
2022-10-12T23:02:26.624Z,9.14
2022-10-12T23:04:58.761Z,9.13
2022-10-12T23:07:30.880Z,9.13
2022-10-12T23:10:03.092Z,9.12
2022-10-12T23:12:36.039Z,9.11
2022-10-12T23:15:09.893Z,9.11
2022-10-12T23:17:42.094Z,9.11
2022-10-12T23:20:14.745Z,9.11
2022-10-12T23:22:47.622Z,9.09
2022-10-12T23:25:19.977Z,9.08
2022-10-12T23:27:52.232Z,9.08
2022-10-12T23:30:24.529Z,9.06
2022-10-12T23:32:56.723Z,9.05
2022-10-12T23:35:31.380Z,9.04
2022-10-12T23:38:03.739Z,9.01
2022-10-12T23:40:37.833Z,9.01
2022-10-12T23:43:11.808Z,8.99
2022-10-12T23:45:45.715Z,8.97
2022-10-12T23:48:17.968Z,8.95
2022-10-12T23:50:52.076Z,8.93
2022-10-12T23:53:25.955Z,8.92
2022-10-12T23:55:58.136Z,8.90
2022-10-12T23:58:30.370Z,8.89
